Laoag International Airport
RPLI : now visible

Airfield :











YOU CAN JOIN US ON...

 
LOGIN :

Register | Disclaimer

   EN    FR    IT 

 









Legend :    VFR   Marginal VFR   IFR   Intensive IFR   Very Intensive IFR
Visi :
Ceiling :
>= 8 km
>= 3000ft
5 to 8 km
1000 to 3000 ft
1500m to 5 km
500 to 1000 ft
800 to 1500m
200 to 500 ft
< 800m
< 200 ft
Symbols :   Thunderstorms  Fog  Heavy snow  Heavy precipitations  Wind > 20 kt






- Airport Elevation : 25 ft
- IATA code : LAO


RPLI - Laoag International

CURRENT METAR :
  • 240700Z 35008KT 310V030 9999 FEW017CB BKN280 32/26 Q1008 NOSIG RMK A3977 CB SE

EXPIRED METARs :
  • 240600Z 34008KT 300V010 9999 FEW017CB BKN280 33/26 Q1009 NOSIG RMK A2980 CB ENE/SE
  • 240500Z 33009KT 9999 FEW017CB BKN280 32/26 Q1009 NOSIG RMK A2980 CB ENE/SE
  • 240400Z 32009KT 280V350 9999 FEW018 BKN280 33/25 Q1010 NOSIG RMK A2983

TAF TAF RPLI
Valid from the 24 at 06:00 until the 25 at 06:00 UTC


240500Z 2406/2506 34008KT 9999 FEW018
TEMPO 2406/2412 36012KT FEW017CB BKN080
BECMG 2413/2415 09004KT
RPHI FIR / Asia



MET'MAP, your aeronautical weather chart ! - Copyright ORBIFLY December 2007 - Disclaimer

ORBIFLY MET'MAP TEAM :

Programming & Development : Alexandra Zaïnal
Original concept : Baudouin d'Aumeries
Technical & hardware support : Manuel Goepfert
Assistance : Marc-Olivier Méhu




SOURCES & CREDITS :

   NOAA       Earth
Advisory